RYR1488 LEMH-LEVC

Flight info

Callsign RYR1488
Flight time 0h 49m
Altitude 31000
Route EPAMA N733 ARGOR
Aircraft B738/M-SDE3FGILRWY/SB1

Departure

Time 2026-04-20 16:53
Airport Menorca Airport (LEMH)

Arrival

Time 2026-04-20 17:43
Airport Valencia Airport (LEVC)
Time Latitude Longitude Altitude Speed Heading
2026-04-20 16:42 39.86575 4.22431 275 ft 0 kts 97°
2026-04-20 16:45 39.86575 4.22426 275 ft 2 kts 100°
2026-04-20 16:45 39.86579 4.22407 274 ft 2 kts 107°
2026-04-20 16:46 39.86583 4.22388 274 ft 2 kts 103°
2026-04-20 16:46 39.86586 4.22370 273 ft 2 kts 105°
2026-04-20 16:46 39.86589 4.22357 273 ft 0 kts 104°
2026-04-20 16:46 39.86590 4.22346 273 ft 1 kts 56°
2026-04-20 16:47 39.86584 4.22339 272 ft 0 kts 13°
2026-04-20 16:47 39.86577 4.22338 272 ft 1 kts
2026-04-20 16:47 39.86576 4.22338 272 ft 0 kts
2026-04-20 16:49 39.86587 4.22340 273 ft 7 kts
2026-04-20 16:49 39.86634 4.22350 276 ft 6 kts
2026-04-20 16:49 39.86692 4.22362 280 ft 7 kts
2026-04-20 16:49 39.86751 4.22375 283 ft 11 kts
2026-04-20 16:50 39.86817 4.22390 286 ft 8 kts
2026-04-20 16:50 39.86883 4.22393 289 ft 10 kts 338°
2026-04-20 16:50 39.86912 4.22346 293 ft 6 kts 289°
2026-04-20 16:50 39.86962 4.22261 295 ft 18 kts 345°
2026-04-20 16:51 39.87124 4.22278 298 ft 25 kts
2026-04-20 16:51 39.87235 4.22302 300 ft 3 kts
2026-04-20 16:51 39.87269 4.22308 301 ft 5 kts
2026-04-20 16:51 39.87339 4.22307 306 ft 9 kts 349°
2026-04-20 16:52 39.87381 4.22266 308 ft 6 kts 298°
2026-04-20 16:52 39.87385 4.22162 308 ft 17 kts 250°
2026-04-20 16:52 39.87300 4.22084 302 ft 22 kts 196°
2026-04-20 16:52 39.86901 4.22000 297 ft 97 kts 189°
2026-04-20 16:53 39.86005 4.21817 300 ft 162 kts 189°
2026-04-20 16:53 39.84824 4.21443 896 ft 179 kts 198°
2026-04-20 16:53 39.83773 4.20963 2126 ft 154 kts 203°
2026-04-20 16:53 39.82811 4.20385 2696 ft 158 kts 209°
2026-04-20 16:54 39.81802 4.19705 3176 ft 168 kts 205°
2026-04-20 16:54 39.80692 4.19004 3534 ft 188 kts 202°
2026-04-20 16:54 39.79337 4.18526 3810 ft 214 kts 198°
2026-04-20 16:54 39.77858 4.18067 4216 ft 229 kts 180°
2026-04-20 16:55 39.76249 4.18544 4654 ft 248 kts 161°
2026-04-20 16:55 39.74531 4.19192 5156 ft 265 kts 170°
2026-04-20 16:55 39.72669 4.19143 5639 ft 274 kts 197°
2026-04-20 16:55 39.71079 4.17834 6136 ft 275 kts 231°
2026-04-20 16:56 39.70211 4.15647 6633 ft 276 kts 256°
2026-04-20 16:56 39.70029 4.13192 7183 ft 274 kts 274°
2026-04-20 16:56 39.70351 4.10735 7809 ft 276 kts 283°
2026-04-20 16:56 39.70806 4.08324 8430 ft 279 kts 284°
2026-04-20 16:57 39.71160 4.05846 9039 ft 281 kts 275°
2026-04-20 16:57 39.70964 4.03349 9644 ft 285 kts 253°
2026-04-20 16:57 39.70036 4.01052 10271 ft 288 kts 235°
2026-04-20 16:57 39.68818 3.99008 10881 ft 291 kts 233°
2026-04-20 16:58 39.67512 3.96965 11509 ft 295 kts 231°
2026-04-20 16:58 39.66163 3.94918 12126 ft 303 kts 231°
2026-04-20 16:58 39.64780 3.92810 12751 ft 311 kts 231°
2026-04-20 16:58 39.63379 3.90649 13368 ft 319 kts 232°
2026-04-20 16:59 39.61950 3.88428 13981 ft 326 kts 232°
2026-04-20 16:59 39.60485 3.86139 14606 ft 334 kts 232°
2026-04-20 16:59 39.58983 3.83788 15230 ft 342 kts 233°
2026-04-20 16:59 39.57445 3.81379 15856 ft 349 kts 233°
2026-04-20 17:00 39.54313 3.76475 17095 ft 361 kts 233°
2026-04-20 17:00 39.52705 3.73959 17716 ft 367 kts 233°
2026-04-20 17:00 39.51067 3.71396 18344 ft 371 kts 233°
2026-04-20 17:01 39.49425 3.68826 18969 ft 376 kts 233°
2026-04-20 17:01 39.47749 3.66203 19600 ft 380 kts 233°
2026-04-20 17:01 39.46061 3.63559 20233 ft 383 kts 233°
2026-04-20 17:01 39.44354 3.60885 20870 ft 386 kts 233°
2026-04-20 17:02 39.42655 3.58222 21503 ft 388 kts 233°
2026-04-20 17:02 39.40922 3.55506 22146 ft 390 kts 233°
2026-04-20 17:02 39.39187 3.52785 22790 ft 391 kts 233°
2026-04-20 17:02 39.37499 3.50068 23426 ft 391 kts 237°
2026-04-20 17:03 39.36106 3.47064 24079 ft 387 kts 247°
2026-04-20 17:03 39.35160 3.43880 24725 ft 384 kts 256°
2026-04-20 17:03 39.34539 3.40557 25375 ft 381 kts 263°
2026-04-20 17:03 39.34319 3.37153 26031 ft 377 kts 273°
2026-04-20 17:04 39.34549 3.33825 26680 ft 373 kts 279°
2026-04-20 17:04 39.34983 3.30538 27335 ft 370 kts 282°
2026-04-20 17:04 39.35490 3.27317 27990 ft 367 kts 283°
2026-04-20 17:04 39.36018 3.24118 28657 ft 363 kts 283°
2026-04-20 17:05 39.36543 3.20943 29328 ft 359 kts 283°
2026-04-20 17:05 39.37045 3.17860 29991 ft 353 kts 283°
2026-04-20 17:05 39.37540 3.14759 30667 ft 348 kts 283°
2026-04-20 17:05 39.38021 3.11701 30955 ft 351 kts 283°
2026-04-20 17:06 39.38511 3.08569 30954 ft 361 kts 282°
2026-04-20 17:06 39.39513 3.02090 30957 ft 380 kts 282°
2026-04-20 17:07 39.40569 2.95197 30955 ft 398 kts 282°
2026-04-20 17:07 39.41680 2.87900 30952 ft 416 kts 282°
2026-04-20 17:08 39.42808 2.80467 30953 ft 433 kts 282°
2026-04-20 17:08 39.44394 2.72857 30953 ft 434 kts 290°
2026-04-20 17:08 39.45425 2.69288 30953 ft 420 kts 292°
2026-04-20 17:09 39.46524 2.65786 30953 ft 417 kts 293°
2026-04-20 17:09 39.48764 2.58890 30953 ft 421 kts 293°
2026-04-20 17:10 39.51032 2.51872 30953 ft 421 kts 293°
2026-04-20 17:10 39.53244 2.44903 30951 ft 421 kts 292°
2026-04-20 17:11 39.55013 2.37719 30944 ft 422 kts 282°
2026-04-20 17:11 39.55695 2.30167 30940 ft 424 kts 275°
2026-04-20 17:12 39.56039 2.22562 30937 ft 424 kts 274°
2026-04-20 17:12 39.56374 2.14966 30937 ft 423 kts 274°
2026-04-20 17:13 39.56745 2.07380 30936 ft 423 kts 275°
2026-04-20 17:13 39.57139 1.99793 30936 ft 420 kts 275°
2026-04-20 17:14 39.57534 1.92291 30935 ft 422 kts 275°
2026-04-20 17:14 39.57931 1.84761 30932 ft 418 kts 275°
2026-04-20 17:14 39.58126 1.81011 30779 ft 420 kts 275°
2026-04-20 17:15 39.58322 1.77233 30500 ft 414 kts 275°
2026-04-20 17:15 39.58510 1.73577 30228 ft 410 kts 275°
2026-04-20 17:15 39.58701 1.69871 29956 ft 412 kts 275°
2026-04-20 17:15 39.58892 1.66164 29691 ft 422 kts 275°
2026-04-20 17:16 39.59090 1.62313 29419 ft 428 kts 275°
2026-04-20 17:16 39.59286 1.58459 29150 ft 428 kts 275°
2026-04-20 17:16 39.59479 1.54608 28881 ft 429 kts 275°
2026-04-20 17:16 39.59671 1.50753 28611 ft 430 kts 275°
2026-04-20 17:17 39.59860 1.46925 28348 ft 430 kts 275°
2026-04-20 17:17 39.60048 1.43074 28081 ft 420 kts 275°
2026-04-20 17:17 39.60217 1.39387 27819 ft 409 kts 274°
2026-04-20 17:17 39.60256 1.35753 27554 ft 398 kts 270°
2026-04-20 17:18 39.60129 1.32194 27289 ft 391 kts 267°
2026-04-20 17:18 39.59923 1.28661 27030 ft 401 kts 266°
2026-04-20 17:18 39.59682 1.24988 26768 ft 419 kts 266°
2026-04-20 17:18 39.59432 1.21180 26465 ft 429 kts 266°
2026-04-20 17:19 39.59186 1.17333 26070 ft 429 kts 266°
2026-04-20 17:19 39.58946 1.13477 25592 ft 430 kts 266°
2026-04-20 17:19 39.58711 1.09622 25067 ft 430 kts 266°
2026-04-20 17:19 39.58481 1.05776 24544 ft 428 kts 266°
2026-04-20 17:20 39.58255 1.01970 24026 ft 425 kts 266°
2026-04-20 17:20 39.58029 0.98159 23503 ft 422 kts 266°
2026-04-20 17:20 39.57804 0.94383 22991 ft 419 kts 266°
2026-04-20 17:20 39.57581 0.90649 22480 ft 417 kts 266°
2026-04-20 17:21 39.57358 0.86918 21978 ft 416 kts 266°
2026-04-20 17:21 39.57136 0.83202 21428 ft 416 kts 266°
2026-04-20 17:21 39.56912 0.79476 20846 ft 413 kts 266°
2026-04-20 17:21 39.56691 0.75805 20261 ft 408 kts 266°
2026-04-20 17:22 39.56471 0.72157 19669 ft 405 kts 266°
2026-04-20 17:22 39.56251 0.68536 19100 ft 401 kts 266°
2026-04-20 17:22 39.56036 0.65001 18493 ft 397 kts 266°
2026-04-20 17:22 39.55819 0.61434 17865 ft 394 kts 266°
2026-04-20 17:23 39.55607 0.57959 17255 ft 390 kts 266°
2026-04-20 17:23 39.55394 0.54479 16641 ft 387 kts 266°
2026-04-20 17:23 39.55181 0.51016 16012 ft 384 kts 266°
2026-04-20 17:23 39.54968 0.47590 15392 ft 381 kts 266°
2026-04-20 17:24 39.54755 0.44177 14767 ft 379 kts 266°
2026-04-20 17:24 39.54543 0.40809 14153 ft 376 kts 266°
2026-04-20 17:24 39.54331 0.37446 13541 ft 373 kts 266°
2026-04-20 17:24 39.54120 0.34134 13076 ft 366 kts 265°
2026-04-20 17:25 39.53913 0.30880 12700 ft 357 kts 265°
2026-04-20 17:25 39.53713 0.27757 12333 ft 349 kts 265°
2026-04-20 17:25 39.53512 0.24651 11957 ft 342 kts 265°
2026-04-20 17:25 39.53315 0.21618 11659 ft 334 kts 265°
2026-04-20 17:26 39.53125 0.18685 11411 ft 324 kts 265°
2026-04-20 17:26 39.52935 0.15785 11173 ft 316 kts 265°
2026-04-20 17:26 39.52753 0.13005 10912 ft 309 kts 265°
2026-04-20 17:26 39.52572 0.10265 10658 ft 301 kts 265°
2026-04-20 17:27 39.52398 0.07623 10413 ft 295 kts 265°
2026-04-20 17:27 39.52223 0.04988 10164 ft 289 kts 265°
2026-04-20 17:27 39.52052 0.02415 9896 ft 284 kts 266°
2026-04-20 17:27 39.51883 -0.00085 9685 ft 282 kts 266°
2026-04-20 17:28 39.51714 -0.02613 9389 ft 280 kts 266°
2026-04-20 17:28 39.51547 -0.05090 9142 ft 276 kts 265°
2026-04-20 17:28 39.51380 -0.07571 8916 ft 272 kts 265°
2026-04-20 17:28 39.51218 -0.09981 8642 ft 268 kts 265°
2026-04-20 17:29 39.51055 -0.12390 8378 ft 268 kts 265°
2026-04-20 17:29 39.50893 -0.14772 8160 ft 268 kts 265°
2026-04-20 17:29 39.50730 -0.17169 7885 ft 264 kts 265°
2026-04-20 17:29 39.50570 -0.19509 7635 ft 261 kts 265°
2026-04-20 17:30 39.50411 -0.21841 7396 ft 258 kts 265°
2026-04-20 17:30 39.50253 -0.24137 7150 ft 255 kts 265°
2026-04-20 17:30 39.50097 -0.26417 6906 ft 253 kts 265°
2026-04-20 17:30 39.49940 -0.28680 6660 ft 252 kts 265°
2026-04-20 17:31 39.49782 -0.30940 6416 ft 252 kts 264°
2026-04-20 17:31 39.49623 -0.33234 6176 ft 261 kts 264°
2026-04-20 17:31 39.49460 -0.35574 5984 ft 261 kts 264°
2026-04-20 17:31 39.49407 -0.37898 5965 ft 261 kts 278°
2026-04-20 17:32 39.50068 -0.40122 5933 ft 266 kts 300°
2026-04-20 17:32 39.51075 -0.42123 5636 ft 268 kts 304°
2026-04-20 17:32 39.52107 -0.44144 5319 ft 267 kts 302°
2026-04-20 17:32 39.53070 -0.46180 5008 ft 267 kts 300°
2026-04-20 17:33 39.54007 -0.48271 4693 ft 267 kts 300°
2026-04-20 17:33 39.54926 -0.50358 4380 ft 267 kts 299°
2026-04-20 17:33 39.55847 -0.52455 4066 ft 268 kts 299°
2026-04-20 17:33 39.56767 -0.54550 3753 ft 268 kts 299°
2026-04-20 17:34 39.57699 -0.56669 3435 ft 268 kts 300°
2026-04-20 17:34 39.58618 -0.58754 3124 ft 268 kts 300°
2026-04-20 17:34 39.59543 -0.60855 2839 ft 267 kts 300°
2026-04-20 17:34 39.60435 -0.62887 2790 ft 256 kts 300°
2026-04-20 17:35 39.61296 -0.64850 2794 ft 243 kts 300°
2026-04-20 17:35 39.62115 -0.66717 2795 ft 231 kts 299°
2026-04-20 17:35 39.62884 -0.68473 2800 ft 219 kts 299°
2026-04-20 17:35 39.63579 -0.70176 2799 ft 207 kts 289°
2026-04-20 17:36 39.63659 -0.71942 2803 ft 191 kts 254°
2026-04-20 17:36 39.63126 -0.73453 2814 ft 183 kts 235°
2026-04-20 17:36 39.62320 -0.74720 2819 ft 182 kts 218°
2026-04-20 17:36 39.61223 -0.75444 2820 ft 172 kts 190°
2026-04-20 17:37 39.60050 -0.75579 2825 ft 165 kts 176°
2026-04-20 17:37 39.58973 -0.75146 2821 ft 163 kts 140°
2026-04-20 17:37 39.58425 -0.73935 2825 ft 155 kts 103°
2026-04-20 17:37 39.58133 -0.72602 2822 ft 153 kts 112°
2026-04-20 17:38 39.57690 -0.71349 2815 ft 151 kts 116°
2026-04-20 17:38 39.57240 -0.70118 2801 ft 152 kts 115°
2026-04-20 17:38 39.56782 -0.68884 2798 ft 152 kts 116°
2026-04-20 17:38 39.56318 -0.67652 2795 ft 152 kts 116°
2026-04-20 17:39 39.55850 -0.66411 2793 ft 152 kts 116°
2026-04-20 17:39 39.55382 -0.65176 2770 ft 154 kts 116°
2026-04-20 17:39 39.54915 -0.63936 2579 ft 153 kts 115°
2026-04-20 17:39 39.54455 -0.62715 2374 ft 150 kts 116°
2026-04-20 17:40 39.53989 -0.61496 2167 ft 151 kts 115°
2026-04-20 17:40 39.53532 -0.60282 1977 ft 151 kts 116°
2026-04-20 17:40 39.53072 -0.59067 1766 ft 149 kts 116°
2026-04-20 17:40 39.52607 -0.57847 1583 ft 155 kts 115°
2026-04-20 17:41 39.52130 -0.56579 1357 ft 155 kts 115°
2026-04-20 17:41 39.51646 -0.55349 1169 ft 150 kts 115°
2026-04-20 17:41 39.51194 -0.54139 956 ft 149 kts 115°
2026-04-20 17:41 39.50738 -0.52943 760 ft 149 kts 113°
2026-04-20 17:42 39.50299 -0.51743 568 ft 148 kts 114°
2026-04-20 17:42 39.49842 -0.50545 354 ft 147 kts 114°
2026-04-20 17:42 39.49395 -0.49378 229 ft 140 kts 112°
2026-04-20 17:42 39.49066 -0.48497 214 ft 75 kts 115°
2026-04-20 17:43 39.48977 -0.48179 212 ft 10 kts 90°
2026-04-20 17:43 39.48977 -0.48170 211 ft 0 kts 87°
2026-04-20 17:43 39.48977 -0.48168 211 ft 0 kts 87°
2026-04-20 17:43 39.48978 -0.48160 210 ft 3 kts 86°
2026-04-20 17:44 39.48980 -0.48131 209 ft 3 kts 83°
2026-04-20 17:44 39.48986 -0.48081 206 ft 8 kts 79°
2026-04-20 17:44 39.49003 -0.47990 197 ft 15 kts 76°
2026-04-20 17:44 39.49021 -0.47890 181 ft 15 kts 75°
2026-04-20 17:45 39.49047 -0.47744 170 ft 17 kts 76°
2026-04-20 17:45 39.49052 -0.47631 166 ft 12 kts 109°
2026-04-20 17:45 39.49018 -0.47527 165 ft 10 kts 99°
2026-04-20 17:45 39.49045 -0.47469 167 ft 4 kts 40°
2026-04-20 17:46 39.49054 -0.47458 168 ft 4 kts 40°
2026-04-20 17:46 39.49061 -0.47451 169 ft 1 kts 40°
2026-04-20 17:46 39.49064 -0.47447 169 ft 1 kts 40°
2026-04-20 17:46 39.49065 -0.47446 169 ft 0 kts 40°